Uffculme, United Kingdom
Current Conditions -  °F | °C
As of 7:20 PM on Tuesday 21 Oct 2014 (Local Time) from EGTE Reporting Station
Few Clouds Few Clouds  
Wind Chill: 43°   Ceiling: Unl
Heat Index: 48°   Visibility: 6mi
Dew Point: 37°   Wind: 14mph
Humidity: 66%   Direction: 330°NNW
Pressure: 30.15"   Gusts: NA
Location:  50.91°N, 3.33°W
Report Text: EGTE 211820Z 33012KT 9999 FEW030 09/03 Q1021
Loading
Personal Weather Stations






























Interactive Weather Map
Tropical Storm Tracking
New forecast layout! Learn more

10-Day Weather Forecast

Advertisements
Track Severe Weather on mobile